sensor_id;sensor_type;location;lat;lon;timestamp;P1;durP1;ratioP1;P2;durP2;ratioP2
69327;SDS011;56472;52.114;5.492;2023-04-23T00:02:08;74.65;;;40.63;;
69327;SDS011;56472;52.114;5.492;2023-04-23T00:04:38;72.28;;;41.50;;
69327;SDS011;56472;52.114;5.492;2023-04-23T00:07:12;76.38;;;40.65;;
69327;SDS011;56472;52.114;5.492;2023-04-23T00:09:39;78.78;;;42.33;;
69327;SDS011;56472;52.114;5.492;2023-04-23T00:12:08;75.13;;;40.03;;
69327;SDS011;56472;52.114;5.492;2023-04-23T00:14:36;92.15;;;45.55;;
69327;SDS011;56472;52.114;5.492;2023-04-23T00:17:02;75.93;;;39.97;;
69327;SDS011;56472;52.114;5.492;2023-04-23T00:19:29;79.18;;;42.40;;
69327;SDS011;56472;52.114;5.492;2023-04-23T00:21:56;84.82;;;44.55;;
69327;SDS011;56472;52.114;5.492;2023-04-23T00:24:23;91.90;;;46.30;;
69327;SDS011;56472;52.114;5.492;2023-04-23T00:26:50;87.47;;;44.65;;
69327;SDS011;56472;52.114;5.492;2023-04-23T00:29:18;80.22;;;42.75;;
69327;SDS011;56472;52.114;5.492;2023-04-23T00:31:45;89.35;;;46.38;;
69327;SDS011;56472;52.114;5.492;2023-04-23T00:34:11;92.60;;;45.70;;
69327;SDS011;56472;52.114;5.492;2023-04-23T00:36:38;97.15;;;47.50;;
69327;SDS011;56472;52.114;5.492;2023-04-23T00:39:05;97.65;;;46.33;;
69327;SDS011;56472;52.114;5.492;2023-04-23T00:41:33;90.13;;;45.30;;
69327;SDS011;56472;52.114;5.492;2023-04-23T00:43:59;99.53;;;47.40;;
69327;SDS011;56472;52.114;5.492;2023-04-23T00:46:26;98.43;;;48.92;;
69327;SDS011;56472;52.114;5.492;2023-04-23T00:48:54;98.63;;;47.25;;
69327;SDS011;56472;52.114;5.492;2023-04-23T00:51:21;105.88;;;49.65;;
69327;SDS011;56472;52.114;5.492;2023-04-23T00:53:50;107.53;;;50.40;;
69327;SDS011;56472;52.114;5.492;2023-04-23T00:56:17;110.45;;;50.90;;
69327;SDS011;56472;52.114;5.492;2023-04-23T00:58:44;111.95;;;51.00;;
69327;SDS011;56472;52.114;5.492;2023-04-23T01:01:11;112.47;;;52.60;;
69327;SDS011;56472;52.114;5.492;2023-04-23T01:03:39;104.68;;;49.63;;
69327;SDS011;56472;52.114;5.492;2023-04-23T01:06:07;105.10;;;50.38;;
69327;SDS011;56472;52.114;5.492;2023-04-23T01:08:34;105.82;;;50.25;;
69327;SDS011;56472;52.114;5.492;2023-04-23T01:11:02;108.80;;;52.03;;
69327;SDS011;56472;52.114;5.492;2023-04-23T01:13:29;121.47;;;51.75;;
69327;SDS011;56472;52.114;5.492;2023-04-23T01:15:56;109.90;;;51.05;;
69327;SDS011;56472;52.114;5.492;2023-04-23T01:18:23;114.05;;;49.38;;
69327;SDS011;56472;52.114;5.492;2023-04-23T01:20:50;116.43;;;51.45;;
69327;SDS011;56472;52.114;5.492;2023-04-23T01:23:17;110.07;;;49.13;;
69327;SDS011;56472;52.114;5.492;2023-04-23T01:25:45;102.38;;;48.15;;
69327;SDS011;56472;52.114;5.492;2023-04-23T01:28:12;103.35;;;47.30;;
69327;SDS011;56472;52.114;5.492;2023-04-23T01:30:41;97.90;;;47.90;;
69327;SDS011;56472;52.114;5.492;2023-04-23T01:33:09;87.60;;;43.78;;
69327;SDS011;56472;52.114;5.492;2023-04-23T01:35:36;94.30;;;45.22;;
69327;SDS011;56472;52.114;5.492;2023-04-23T01:38:06;92.35;;;44.58;;
69327;SDS011;56472;52.114;5.492;2023-04-23T01:40:36;94.68;;;46.03;;
69327;SDS011;56472;52.114;5.492;2023-04-23T01:43:04;112.03;;;48.97;;
69327;SDS011;56472;52.114;5.492;2023-04-23T01:45:31;96.95;;;45.85;;
69327;SDS011;56472;52.114;5.492;2023-04-23T01:47:58;89.95;;;44.70;;
69327;SDS011;56472;52.114;5.492;2023-04-23T01:50:26;110.28;;;49.20;;
69327;SDS011;56472;52.114;5.492;2023-04-23T01:52:54;95.78;;;46.10;;
69327;SDS011;56472;52.114;5.492;2023-04-23T01:55:21;94.80;;;44.17;;
69327;SDS011;56472;52.114;5.492;2023-04-23T01:57:48;97.95;;;45.40;;
69327;SDS011;56472;52.114;5.492;2023-04-23T02:00:16;113.20;;;52.83;;
69327;SDS011;56472;52.114;5.492;2023-04-23T02:02:44;105.28;;;47.35;;
69327;SDS011;56472;52.114;5.492;2023-04-23T02:05:12;120.13;;;51.08;;
69327;SDS011;56472;52.114;5.492;2023-04-23T02:07:42;112.07;;;49.90;;
69327;SDS011;56472;52.114;5.492;2023-04-23T02:10:10;119.38;;;51.33;;
69327;SDS011;56472;52.114;5.492;2023-04-23T02:12:38;114.90;;;51.28;;
69327;SDS011;56472;52.114;5.492;2023-04-23T02:15:08;121.68;;;52.10;;
69327;SDS011;56472;52.114;5.492;2023-04-23T02:17:36;116.78;;;52.72;;
69327;SDS011;56472;52.114;5.492;2023-04-23T02:20:06;135.02;;;53.13;;
69327;SDS011;56472;52.114;5.492;2023-04-23T02:22:38;126.47;;;52.88;;
69327;SDS011;56472;52.114;5.492;2023-04-23T02:25:06;128.20;;;53.58;;
69327;SDS011;56472;52.114;5.492;2023-04-23T02:27:34;141.73;;;55.92;;
69327;SDS011;56472;52.114;5.492;2023-04-23T02:30:02;148.40;;;55.58;;
69327;SDS011;56472;52.114;5.492;2023-04-23T02:32:29;141.65;;;51.92;;
69327;SDS011;56472;52.114;5.492;2023-04-23T02:34:56;133.38;;;54.65;;
69327;SDS011;56472;52.114;5.492;2023-04-23T02:37:25;133.70;;;53.67;;
69327;SDS011;56472;52.114;5.492;2023-04-23T02:39:52;143.95;;;54.40;;
69327;SDS011;56472;52.114;5.492;2023-04-23T02:42:19;135.95;;;53.28;;
69327;SDS011;56472;52.114;5.492;2023-04-23T02:44:46;135.15;;;53.53;;
69327;SDS011;56472;52.114;5.492;2023-04-23T02:47:13;135.10;;;52.78;;
69327;SDS011;56472;52.114;5.492;2023-04-23T02:49:40;122.47;;;50.28;;
69327;SDS011;56472;52.114;5.492;2023-04-23T02:52:06;134.30;;;52.45;;
69327;SDS011;56472;52.114;5.492;2023-04-23T02:54:33;126.28;;;51.55;;
69327;SDS011;56472;52.114;5.492;2023-04-23T02:57:03;121.72;;;50.67;;
69327;SDS011;56472;52.114;5.492;2023-04-23T02:59:30;122.10;;;48.95;;
69327;SDS011;56472;52.114;5.492;2023-04-23T03:01:57;132.23;;;50.88;;
69327;SDS011;56472;52.114;5.492;2023-04-23T03:04:25;127.45;;;49.35;;
69327;SDS011;56472;52.114;5.492;2023-04-23T03:06:52;116.20;;;46.72;;
69327;SDS011;56472;52.114;5.492;2023-04-23T03:09:19;108.97;;;45.22;;
69327;SDS011;56472;52.114;5.492;2023-04-23T03:11:46;105.97;;;46.55;;
69327;SDS011;56472;52.114;5.492;2023-04-23T03:14:13;107.53;;;45.20;;
69327;SDS011;56472;52.114;5.492;2023-04-23T03:16:40;104.03;;;44.72;;
69327;SDS011;56472;52.114;5.492;2023-04-23T03:19:07;108.28;;;44.28;;
69327;SDS011;56472;52.114;5.492;2023-04-23T03:21:34;102.22;;;44.15;;
69327;SDS011;56472;52.114;5.492;2023-04-23T03:24:01;108.35;;;43.25;;
69327;SDS011;56472;52.114;5.492;2023-04-23T03:26:28;99.20;;;43.03;;
69327;SDS011;56472;52.114;5.492;2023-04-23T03:28:55;88.25;;;41.30;;
69327;SDS011;56472;52.114;5.492;2023-04-23T03:31:22;89.18;;;40.05;;
69327;SDS011;56472;52.114;5.492;2023-04-23T03:33:50;92.95;;;41.70;;
69327;SDS011;56472;52.114;5.492;2023-04-23T03:36:23;87.05;;;39.95;;
69327;SDS011;56472;52.114;5.492;2023-04-23T03:38:50;82.50;;;39.13;;
69327;SDS011;56472;52.114;5.492;2023-04-23T03:41:17;79.03;;;37.20;;
69327;SDS011;56472;52.114;5.492;2023-04-23T03:43:44;77.32;;;37.03;;
69327;SDS011;56472;52.114;5.492;2023-04-23T03:48:43;72.72;;;34.58;;
69327;SDS011;56472;52.114;5.492;2023-04-23T03:51:17;74.18;;;37.63;;
69327;SDS011;56472;52.114;5.492;2023-04-23T03:53:47;70.70;;;34.95;;
69327;SDS011;56472;52.114;5.492;2023-04-23T03:59:08;62.78;;;31.58;;
69327;SDS011;56472;52.114;5.492;2023-04-23T04:01:35;68.25;;;33.25;;
69327;SDS011;56472;52.114;5.492;2023-04-23T04:04:02;64.72;;;32.60;;
69327;SDS011;56472;52.114;5.492;2023-04-23T04:06:31;64.68;;;31.15;;
69327;SDS011;56472;52.114;5.492;2023-04-23T04:08:58;63.00;;;32.30;;
69327;SDS011;56472;52.114;5.492;2023-04-23T04:11:25;62.35;;;32.08;;
69327;SDS011;56472;52.114;5.492;2023-04-23T04:13:52;61.25;;;32.28;;
69327;SDS011;56472;52.114;5.492;2023-04-23T04:16:19;62.10;;;33.08;;
69327;SDS011;56472;52.114;5.492;2023-04-23T04:18:46;59.25;;;30.55;;
69327;SDS011;56472;52.114;5.492;2023-04-23T04:21:13;59.38;;;32.47;;
69327;SDS011;56472;52.114;5.492;2023-04-23T04:23:41;61.47;;;31.63;;
69327;SDS011;56472;52.114;5.492;2023-04-23T04:26:08;55.83;;;30.65;;
69327;SDS011;56472;52.114;5.492;2023-04-23T04:28:36;56.42;;;31.13;;
69327;SDS011;56472;52.114;5.492;2023-04-23T04:31:03;58.40;;;31.17;;
69327;SDS011;56472;52.114;5.492;2023-04-23T04:33:31;55.42;;;29.60;;
69327;SDS011;56472;52.114;5.492;2023-04-23T04:35:58;58.30;;;31.08;;
69327;SDS011;56472;52.114;5.492;2023-04-23T04:38:25;56.70;;;30.13;;
69327;SDS011;56472;52.114;5.492;2023-04-23T04:40:53;55.88;;;30.33;;
69327;SDS011;56472;52.114;5.492;2023-04-23T04:43:24;58.00;;;30.90;;
69327;SDS011;56472;52.114;5.492;2023-04-23T04:45:51;56.40;;;30.33;;
69327;SDS011;56472;52.114;5.492;2023-04-23T04:48:19;59.10;;;29.45;;
69327;SDS011;56472;52.114;5.492;2023-04-23T04:50:46;57.95;;;30.75;;
69327;SDS011;56472;52.114;5.492;2023-04-23T04:53:13;58.28;;;30.48;;
69327;SDS011;56472;52.114;5.492;2023-04-23T04:55:40;57.58;;;30.45;;
69327;SDS011;56472;52.114;5.492;2023-04-23T04:58:07;56.58;;;29.35;;
69327;SDS011;56472;52.114;5.492;2023-04-23T05:00:34;53.00;;;29.13;;
69327;SDS011;56472;52.114;5.492;2023-04-23T05:03:01;56.58;;;29.48;;
69327;SDS011;56472;52.114;5.492;2023-04-23T05:05:29;54.33;;;30.38;;
69327;SDS011;56472;52.114;5.492;2023-04-23T05:07:57;52.45;;;30.00;;
69327;SDS011;56472;52.114;5.492;2023-04-23T05:10:27;52.90;;;29.45;;
69327;SDS011;56472;52.114;5.492;2023-04-23T05:12:58;49.78;;;29.20;;
69327;SDS011;56472;52.114;5.492;2023-04-23T05:15:26;55.00;;;30.45;;
69327;SDS011;56472;52.114;5.492;2023-04-23T05:17:53;49.10;;;28.08;;
69327;SDS011;56472;52.114;5.492;2023-04-23T05:20:20;50.55;;;29.50;;
69327;SDS011;56472;52.114;5.492;2023-04-23T05:22:47;49.80;;;29.17;;
69327;SDS011;56472;52.114;5.492;2023-04-23T05:25:14;54.05;;;29.25;;
69327;SDS011;56472;52.114;5.492;2023-04-23T05:27:41;49.70;;;28.40;;
69327;SDS011;56472;52.114;5.492;2023-04-23T05:30:08;48.97;;;28.38;;
69327;SDS011;56472;52.114;5.492;2023-04-23T05:32:36;51.65;;;28.00;;
69327;SDS011;56472;52.114;5.492;2023-04-23T05:35:03;50.00;;;28.80;;
69327;SDS011;56472;52.114;5.492;2023-04-23T05:37:32;46.40;;;28.67;;
69327;SDS011;56472;52.114;5.492;2023-04-23T05:39:59;47.22;;;28.23;;
69327;SDS011;56472;52.114;5.492;2023-04-23T05:42:27;47.45;;;28.55;;
69327;SDS011;56472;52.114;5.492;2023-04-23T05:44:54;48.50;;;28.73;;
69327;SDS011;56472;52.114;5.492;2023-04-23T05:47:21;46.50;;;27.25;;
69327;SDS011;56472;52.114;5.492;2023-04-23T05:49:48;47.63;;;28.10;;
69327;SDS011;56472;52.114;5.492;2023-04-23T05:52:15;45.33;;;27.40;;
69327;SDS011;56472;52.114;5.492;2023-04-23T05:54:42;44.58;;;27.05;;
69327;SDS011;56472;52.114;5.492;2023-04-23T05:57:10;47.85;;;27.60;;
69327;SDS011;56472;52.114;5.492;2023-04-23T05:59:37;48.30;;;27.63;;
69327;SDS011;56472;52.114;5.492;2023-04-23T06:02:04;40.83;;;26.00;;
69327;SDS011;56472;52.114;5.492;2023-04-23T06:04:31;47.58;;;28.00;;
69327;SDS011;56472;52.114;5.492;2023-04-23T06:06:58;49.25;;;27.77;;
69327;SDS011;56472;52.114;5.492;2023-04-23T06:09:25;41.08;;;27.20;;
69327;SDS011;56472;52.114;5.492;2023-04-23T06:11:52;43.17;;;27.30;;
69327;SDS011;56472;52.114;5.492;2023-04-23T06:14:20;38.50;;;25.48;;
69327;SDS011;56472;52.114;5.492;2023-04-23T06:16:46;41.10;;;25.58;;
69327;SDS011;56472;52.114;5.492;2023-04-23T06:19:13;39.20;;;25.75;;
69327;SDS011;56472;52.114;5.492;2023-04-23T06:21:40;45.50;;;25.25;;
69327;SDS011;56472;52.114;5.492;2023-04-23T06:24:07;37.42;;;25.05;;
69327;SDS011;56472;52.114;5.492;2023-04-23T06:26:34;43.38;;;24.65;;
69327;SDS011;56472;52.114;5.492;2023-04-23T06:29:09;36.17;;;24.77;;
69327;SDS011;56472;52.114;5.492;2023-04-23T06:31:45;39.10;;;24.45;;
69327;SDS011;56472;52.114;5.492;2023-04-23T06:34:12;38.70;;;24.42;;
69327;SDS011;56472;52.114;5.492;2023-04-23T06:36:39;37.97;;;23.17;;
69327;SDS011;56472;52.114;5.492;2023-04-23T06:39:06;31.73;;;22.08;;
69327;SDS011;56472;52.114;5.492;2023-04-23T06:41:33;34.35;;;23.40;;
69327;SDS011;56472;52.114;5.492;2023-04-23T06:44:18;27.27;;;20.02;;
69327;SDS011;56472;52.114;5.492;2023-04-23T06:46:51;29.40;;;20.55;;
69327;SDS011;56472;52.114;5.492;2023-04-23T06:49:18;28.58;;;20.00;;
69327;SDS011;56472;52.114;5.492;2023-04-23T06:51:45;28.45;;;20.40;;
69327;SDS011;56472;52.114;5.492;2023-04-23T06:54:12;31.50;;;18.92;;
69327;SDS011;56472;52.114;5.492;2023-04-23T06:56:39;24.10;;;17.75;;
69327;SDS011;56472;52.114;5.492;2023-04-23T06:59:06;21.55;;;16.63;;
69327;SDS011;56472;52.114;5.492;2023-04-23T07:01:38;29.33;;;19.20;;
69327;SDS011;56472;52.114;5.492;2023-04-23T07:04:05;24.67;;;18.20;;
69327;SDS011;56472;52.114;5.492;2023-04-23T07:06:32;21.42;;;16.42;;
69327;SDS011;56472;52.114;5.492;2023-04-23T07:08:59;20.90;;;15.57;;
69327;SDS011;56472;52.114;5.492;2023-04-23T07:11:26;19.25;;;15.45;;
69327;SDS011;56472;52.114;5.492;2023-04-23T07:13:55;23.02;;;15.85;;
69327;SDS011;56472;52.114;5.492;2023-04-23T07:16:22;22.15;;;15.52;;
69327;SDS011;56472;52.114;5.492;2023-04-23T07:18:50;20.90;;;15.95;;
69327;SDS011;56472;52.114;5.492;2023-04-23T07:21:17;21.08;;;15.45;;
69327;SDS011;56472;52.114;5.492;2023-04-23T07:23:44;21.80;;;14.02;;
69327;SDS011;56472;52.114;5.492;2023-04-23T07:26:11;21.30;;;15.30;;
69327;SDS011;56472;52.114;5.492;2023-04-23T07:28:38;17.17;;;14.45;;
69327;SDS011;56472;52.114;5.492;2023-04-23T07:31:05;19.17;;;14.32;;
69327;SDS011;56472;52.114;5.492;2023-04-23T07:33:33;17.15;;;13.52;;
69327;SDS011;56472;52.114;5.492;2023-04-23T07:36:00;18.67;;;12.48;;
69327;SDS011;56472;52.114;5.492;2023-04-23T07:38:27;17.38;;;12.63;;
69327;SDS011;56472;52.114;5.492;2023-04-23T07:40:54;16.02;;;11.48;;
69327;SDS011;56472;52.114;5.492;2023-04-23T07:43:21;16.42;;;12.82;;
69327;SDS011;56472;52.114;5.492;2023-04-23T07:45:48;15.77;;;11.75;;
69327;SDS011;56472;52.114;5.492;2023-04-23T07:48:14;19.13;;;11.82;;
69327;SDS011;56472;52.114;5.492;2023-04-23T07:50:41;16.10;;;12.70;;
69327;SDS011;56472;52.114;5.492;2023-04-23T07:53:08;12.85;;;11.13;;
69327;SDS011;56472;52.114;5.492;2023-04-23T07:55:35;19.05;;;11.70;;
69327;SDS011;56472;52.114;5.492;2023-04-23T07:58:02;14.50;;;10.85;;
69327;SDS011;56472;52.114;5.492;2023-04-23T08:00:29;16.08;;;9.57;;
69327;SDS011;56472;52.114;5.492;2023-04-23T08:02:57;15.60;;;10.23;;
69327;SDS011;56472;52.114;5.492;2023-04-23T08:05:24;15.48;;;9.63;;
69327;SDS011;56472;52.114;5.492;2023-04-23T08:07:52;14.13;;;9.48;;
69327;SDS011;56472;52.114;5.492;2023-04-23T08:10:19;12.73;;;8.80;;
69327;SDS011;56472;52.114;5.492;2023-04-23T08:12:46;11.43;;;9.05;;
69327;SDS011;56472;52.114;5.492;2023-04-23T08:15:12;33.58;;;12.05;;
69327;SDS011;56472;52.114;5.492;2023-04-23T08:17:42;13.93;;;8.07;;
69327;SDS011;56472;52.114;5.492;2023-04-23T08:20:09;11.95;;;7.82;;
69327;SDS011;56472;52.114;5.492;2023-04-23T08:22:36;9.27;;;6.15;;
69327;SDS011;56472;52.114;5.492;2023-04-23T08:25:03;12.02;;;7.00;;
69327;SDS011;56472;52.114;5.492;2023-04-23T08:27:30;12.90;;;6.70;;
69327;SDS011;56472;52.114;5.492;2023-04-23T08:29:57;15.20;;;6.57;;
69327;SDS011;56472;52.114;5.492;2023-04-23T08:32:24;16.63;;;6.95;;
69327;SDS011;56472;52.114;5.492;2023-04-23T08:34:51;9.60;;;6.35;;
69327;SDS011;56472;52.114;5.492;2023-04-23T08:37:18;13.20;;;6.50;;
69327;SDS011;56472;52.114;5.492;2023-04-23T08:39:56;11.00;;;6.13;;
69327;SDS011;56472;52.114;5.492;2023-04-23T08:42:26;17.65;;;6.28;;
69327;SDS011;56472;52.114;5.492;2023-04-23T08:45:02;13.98;;;6.40;;
69327;SDS011;56472;52.114;5.492;2023-04-23T08:47:30;13.80;;;6.50;;
69327;SDS011;56472;52.114;5.492;2023-04-23T08:49:58;13.93;;;6.35;;
69327;SDS011;56472;52.114;5.492;2023-04-23T08:52:26;10.32;;;6.03;;
69327;SDS011;56472;52.114;5.492;2023-04-23T08:55:00;14.30;;;5.82;;
69327;SDS011;56472;52.114;5.492;2023-04-23T08:57:30;14.13;;;5.47;;
69327;SDS011;56472;52.114;5.492;2023-04-23T08:59:58;15.35;;;5.57;;
69327;SDS011;56472;52.114;5.492;2023-04-23T09:04:58;14.93;;;5.80;;
69327;SDS011;56472;52.114;5.492;2023-04-23T09:07:27;13.23;;;5.13;;
69327;SDS011;56472;52.114;5.492;2023-04-23T09:09:54;13.75;;;5.28;;
69327;SDS011;56472;52.114;5.492;2023-04-23T09:12:21;14.02;;;4.80;;
69327;SDS011;56472;52.114;5.492;2023-04-23T09:14:48;13.65;;;5.95;;
69327;SDS011;56472;52.114;5.492;2023-04-23T09:17:16;13.43;;;5.05;;
69327;SDS011;56472;52.114;5.492;2023-04-23T09:19:44;10.93;;;5.25;;
69327;SDS011;56472;52.114;5.492;2023-04-23T09:22:11;9.48;;;4.57;;
69327;SDS011;56472;52.114;5.492;2023-04-23T09:24:42;13.13;;;4.50;;
69327;SDS011;56472;52.114;5.492;2023-04-23T09:27:09;12.05;;;4.95;;
69327;SDS011;56472;52.114;5.492;2023-04-23T09:29:36;9.80;;;4.15;;
69327;SDS011;56472;52.114;5.492;2023-04-23T09:32:07;16.23;;;4.63;;
69327;SDS011;56472;52.114;5.492;2023-04-23T09:34:35;9.70;;;3.70;;
69327;SDS011;56472;52.114;5.492;2023-04-23T09:37:06;8.55;;;4.07;;
69327;SDS011;56472;52.114;5.492;2023-04-23T09:39:35;12.82;;;4.75;;
69327;SDS011;56472;52.114;5.492;2023-04-23T09:42:02;10.82;;;4.18;;
69327;SDS011;56472;52.114;5.492;2023-04-23T09:44:31;13.85;;;4.28;;
69327;SDS011;56472;52.114;5.492;2023-04-23T09:47:08;15.27;;;4.00;;
69327;SDS011;56472;52.114;5.492;2023-04-23T09:49:48;9.23;;;3.45;;
69327;SDS011;56472;52.114;5.492;2023-04-23T09:52:15;13.60;;;3.92;;
69327;SDS011;56472;52.114;5.492;2023-04-23T09:54:43;10.70;;;3.40;;
69327;SDS011;56472;52.114;5.492;2023-04-23T09:57:11;11.75;;;4.32;;
69327;SDS011;56472;52.114;5.492;2023-04-23T09:59:38;8.13;;;3.65;;
69327;SDS011;56472;52.114;5.492;2023-04-23T10:04:38;12.77;;;3.30;;
69327;SDS011;56472;52.114;5.492;2023-04-23T10:07:06;11.00;;;3.22;;
69327;SDS011;56472;52.114;5.492;2023-04-23T10:09:46;11.65;;;3.60;;
69327;SDS011;56472;52.114;5.492;2023-04-23T10:12:13;6.65;;;2.97;;
69327;SDS011;56472;52.114;5.492;2023-04-23T10:14:43;10.15;;;2.92;;
69327;SDS011;56472;52.114;5.492;2023-04-23T10:17:12;11.75;;;2.63;;
69327;SDS011;56472;52.114;5.492;2023-04-23T10:19:39;12.82;;;2.58;;
69327;SDS011;56472;52.114;5.492;2023-04-23T10:22:09;10.10;;;2.58;;
69327;SDS011;56472;52.114;5.492;2023-04-23T10:24:45;9.80;;;2.65;;
69327;SDS011;56472;52.114;5.492;2023-04-23T10:27:17;7.22;;;2.92;;
69327;SDS011;56472;52.114;5.492;2023-04-23T10:29:49;12.82;;;3.72;;
69327;SDS011;56472;52.114;5.492;2023-04-23T10:32:16;8.07;;;2.78;;
69327;SDS011;56472;52.114;5.492;2023-04-23T10:34:45;8.18;;;2.60;;
69327;SDS011;56472;52.114;5.492;2023-04-23T10:37:13;14.68;;;2.45;;
69327;SDS011;56472;52.114;5.492;2023-04-23T10:39:42;8.07;;;2.47;;
69327;SDS011;56472;52.114;5.492;2023-04-23T10:42:10;12.48;;;2.88;;
69327;SDS011;56472;52.114;5.492;2023-04-23T10:44:40;10.15;;;2.70;;
69327;SDS011;56472;52.114;5.492;2023-04-23T10:47:12;6.45;;;2.13;;
69327;SDS011;56472;52.114;5.492;2023-04-23T10:49:41;9.60;;;2.55;;
69327;SDS011;56472;52.114;5.492;2023-04-23T10:52:09;9.75;;;2.70;;
69327;SDS011;56472;52.114;5.492;2023-04-23T10:54:48;9.63;;;2.90;;
69327;SDS011;56472;52.114;5.492;2023-04-23T10:57:22;8.50;;;2.50;;
69327;SDS011;56472;52.114;5.492;2023-04-23T10:59:52;13.15;;;2.25;;
69327;SDS011;56472;52.114;5.492;2023-04-23T11:02:24;14.35;;;2.40;;
69327;SDS011;56472;52.114;5.492;2023-04-23T11:04:55;11.85;;;2.30;;
69327;SDS011;56472;52.114;5.492;2023-04-23T11:07:30;8.05;;;2.10;;
69327;SDS011;56472;52.114;5.492;2023-04-23T11:09:59;6.28;;;1.70;;
69327;SDS011;56472;52.114;5.492;2023-04-23T11:12:37;7.88;;;2.00;;
69327;SDS011;56472;52.114;5.492;2023-04-23T11:15:12;12.55;;;2.20;;
69327;SDS011;56472;52.114;5.492;2023-04-23T11:22:40;6.95;;;2.00;;
69327;SDS011;56472;52.114;5.492;2023-04-23T11:27:45;7.75;;;1.98;;
69327;SDS011;56472;52.114;5.492;2023-04-23T11:30:14;16.83;;;1.95;;
69327;SDS011;56472;52.114;5.492;2023-04-23T11:32:48;10.10;;;2.28;;
69327;SDS011;56472;52.114;5.492;2023-04-23T11:35:18;8.25;;;1.83;;
69327;SDS011;56472;52.114;5.492;2023-04-23T11:37:47;7.05;;;1.75;;
69327;SDS011;56472;52.114;5.492;2023-04-23T11:40:15;8.20;;;2.03;;
69327;SDS011;56472;52.114;5.492;2023-04-23T11:45:21;6.20;;;2.13;;
69327;SDS011;56472;52.114;5.492;2023-04-23T11:47:51;6.15;;;1.55;;
69327;SDS011;56472;52.114;5.492;2023-04-23T11:50:25;8.95;;;1.70;;
69327;SDS011;56472;52.114;5.492;2023-04-23T11:52:54;4.30;;;1.42;;
69327;SDS011;56472;52.114;5.492;2023-04-23T11:55:22;8.93;;;2.47;;
69327;SDS011;56472;52.114;5.492;2023-04-23T11:57:49;8.07;;;2.00;;
69327;SDS011;56472;52.114;5.492;2023-04-23T12:00:19;8.95;;;1.65;;
69327;SDS011;56472;52.114;5.492;2023-04-23T12:10:40;4.20;;;1.50;;
69327;SDS011;56472;52.114;5.492;2023-04-23T12:13:16;5.55;;;1.63;;
69327;SDS011;56472;52.114;5.492;2023-04-23T12:15:51;7.18;;;1.63;;
69327;SDS011;56472;52.114;5.492;2023-04-23T12:18:18;2.17;;;1.20;;
69327;SDS011;56472;52.114;5.492;2023-04-23T12:20:45;6.25;;;1.40;;
69327;SDS011;56472;52.114;5.492;2023-04-23T12:23:12;4.10;;;1.40;;
69327;SDS011;56472;52.114;5.492;2023-04-23T12:25:39;10.43;;;1.85;;
69327;SDS011;56472;52.114;5.492;2023-04-23T12:28:07;14.52;;;1.50;;
69327;SDS011;56472;52.114;5.492;2023-04-23T12:30:41;3.83;;;1.35;;
69327;SDS011;56472;52.114;5.492;2023-04-23T12:33:09;4.13;;;1.23;;
69327;SDS011;56472;52.114;5.492;2023-04-23T12:35:40;4.72;;;1.35;;
69327;SDS011;56472;52.114;5.492;2023-04-23T12:38:26;5.00;;;1.50;;
69327;SDS011;56472;52.114;5.492;2023-04-23T12:40:55;3.38;;;1.30;;
69327;SDS011;56472;52.114;5.492;2023-04-23T12:43:24;6.97;;;1.80;;
69327;SDS011;56472;52.114;5.492;2023-04-23T12:45:53;7.80;;;1.35;;
69327;SDS011;56472;52.114;5.492;2023-04-23T12:48:20;4.13;;;1.48;;
69327;SDS011;56472;52.114;5.492;2023-04-23T12:50:47;7.85;;;1.65;;
69327;SDS011;56472;52.114;5.492;2023-04-23T12:53:14;5.75;;;1.63;;
69327;SDS011;56472;52.114;5.492;2023-04-23T12:55:41;5.20;;;1.65;;
69327;SDS011;56472;52.114;5.492;2023-04-23T12:58:09;6.38;;;1.70;;
69327;SDS011;56472;52.114;5.492;2023-04-23T13:00:36;5.60;;;1.85;;
69327;SDS011;56472;52.114;5.492;2023-04-23T13:03:03;4.85;;;1.35;;
69327;SDS011;56472;52.114;5.492;2023-04-23T13:05:30;4.57;;;1.55;;
69327;SDS011;56472;52.114;5.492;2023-04-23T13:07:57;4.55;;;1.40;;
69327;SDS011;56472;52.114;5.492;2023-04-23T13:10:24;5.45;;;1.20;;
69327;SDS011;56472;52.114;5.492;2023-04-23T13:12:51;7.05;;;1.60;;
69327;SDS011;56472;52.114;5.492;2023-04-23T13:15:18;5.72;;;1.70;;
69327;SDS011;56472;52.114;5.492;2023-04-23T13:17:45;6.85;;;1.50;;
69327;SDS011;56472;52.114;5.492;2023-04-23T13:20:12;5.35;;;1.52;;
69327;SDS011;56472;52.114;5.492;2023-04-23T13:22:39;6.80;;;1.58;;
69327;SDS011;56472;52.114;5.492;2023-04-23T13:25:06;7.03;;;1.60;;
69327;SDS011;56472;52.114;5.492;2023-04-23T13:27:33;4.55;;;1.38;;
69327;SDS011;56472;52.114;5.492;2023-04-23T13:30:00;3.50;;;1.40;;
69327;SDS011;56472;52.114;5.492;2023-04-23T13:32:27;4.93;;;1.48;;
69327;SDS011;56472;52.114;5.492;2023-04-23T13:34:57;3.50;;;1.35;;
69327;SDS011;56472;52.114;5.492;2023-04-23T13:37:30;4.45;;;1.75;;
69327;SDS011;56472;52.114;5.492;2023-04-23T13:39:57;5.50;;;1.35;;
69327;SDS011;56472;52.114;5.492;2023-04-23T13:42:24;4.43;;;1.33;;
69327;SDS011;56472;52.114;5.492;2023-04-23T13:44:50;5.07;;;1.35;;
69327;SDS011;56472;52.114;5.492;2023-04-23T13:47:17;2.58;;;0.98;;
69327;SDS011;56472;52.114;5.492;2023-04-23T13:49:44;4.45;;;1.48;;
69327;SDS011;56472;52.114;5.492;2023-04-23T13:52:11;7.53;;;1.67;;
69327;SDS011;56472;52.114;5.492;2023-04-23T13:54:38;5.90;;;1.42;;
69327;SDS011;56472;52.114;5.492;2023-04-23T13:57:05;7.35;;;1.25;;
69327;SDS011;56472;52.114;5.492;2023-04-23T13:59:32;6.57;;;1.58;;
69327;SDS011;56472;52.114;5.492;2023-04-23T14:01:59;3.55;;;1.25;;
69327;SDS011;56472;52.114;5.492;2023-04-23T14:04:26;3.30;;;1.30;;
69327;SDS011;56472;52.114;5.492;2023-04-23T14:06:53;5.07;;;1.63;;
69327;SDS011;56472;52.114;5.492;2023-04-23T14:09:20;4.75;;;1.25;;
69327;SDS011;56472;52.114;5.492;2023-04-23T14:11:48;3.70;;;1.38;;
69327;SDS011;56472;52.114;5.492;2023-04-23T14:14:14;6.53;;;1.73;;
69327;SDS011;56472;52.114;5.492;2023-04-23T14:16:42;4.70;;;1.45;;
69327;SDS011;56472;52.114;5.492;2023-04-23T14:19:09;5.63;;;1.58;;
69327;SDS011;56472;52.114;5.492;2023-04-23T14:21:36;4.15;;;1.60;;
69327;SDS011;56472;52.114;5.492;2023-04-23T14:24:07;8.60;;;1.40;;
69327;SDS011;56472;52.114;5.492;2023-04-23T14:26:41;4.28;;;1.52;;
69327;SDS011;56472;52.114;5.492;2023-04-23T14:29:22;3.00;;;1.25;;
69327;SDS011;56472;52.114;5.492;2023-04-23T14:31:59;5.93;;;1.33;;
69327;SDS011;56472;52.114;5.492;2023-04-23T14:34:26;7.85;;;2.17;;
69327;SDS011;56472;52.114;5.492;2023-04-23T14:36:53;6.60;;;1.65;;
69327;SDS011;56472;52.114;5.492;2023-04-23T14:39:20;7.13;;;1.55;;
69327;SDS011;56472;52.114;5.492;2023-04-23T14:41:48;7.80;;;1.80;;
69327;SDS011;56472;52.114;5.492;2023-04-23T14:44:15;7.35;;;2.00;;
69327;SDS011;56472;52.114;5.492;2023-04-23T14:46:42;4.07;;;1.38;;
69327;SDS011;56472;52.114;5.492;2023-04-23T14:49:09;5.65;;;2.20;;
69327;SDS011;56472;52.114;5.492;2023-04-23T14:51:36;5.18;;;1.40;;
69327;SDS011;56472;52.114;5.492;2023-04-23T14:54:03;4.63;;;1.67;;
69327;SDS011;56472;52.114;5.492;2023-04-23T14:56:30;7.10;;;1.60;;
69327;SDS011;56472;52.114;5.492;2023-04-23T14:58:57;6.40;;;1.65;;
69327;SDS011;56472;52.114;5.492;2023-04-23T15:01:24;7.35;;;1.58;;
69327;SDS011;56472;52.114;5.492;2023-04-23T15:03:52;6.15;;;2.40;;